Latest Coastal Weather Observations for Noarlunga

IDS60701

Issued at 7:35 pm CST Sunday 21 September 2014 (issued every 10 minutes, with the page automatically refreshed every 10 minutes)

About coastal observations | Map of coastal stations | Coastal observations for SA | Marine services | Other Formats
Station Details ID: 023885 Name: NOARLUNGA Lat: -35.16 Lon: 138.51 Height: 55.0 m
Data from the previous 72 hours. | See also: Recent months at Noarlunga
Date/Time
CST
Temp

°C
Wind Pressure Rain
since 9am
mm
Weather Cloud Vis
km
Sea
Height
m
Swell
Dir
 
Speed
knots
Gust
knots
hPa Trend Height
m
Period
s
Dir
21/07:30pm 14.7 E 3 6 - - 0.0 - - - - - - -
21/07:00pm 14.9 ESE 1 2 - - 0.0 - - - - - - -
21/06:30pm 15.8 CALM 0 1 - - 0.0 - - - - - - -
21/06:00pm 17.3 SW 3 4 - - 0.0 - - - - - - -
21/05:30pm 18.4 SW 3 5 - - 0.0 - - - - - - -
21/05:00pm 18.5 SSW 5 8 - - 0.0 - - - - - - -
21/04:30pm 19.1 SW 5 8 - - 0.0 - - - - - - -
21/04:00pm 19.1 SW 7 10 - - 0.0 - - - - - - -
21/03:30pm 20.4 WSW 5 8 - - 0.0 - - - - - - -
21/03:00pm 20.9 WSW 6 9 - - 0.0 - - - - - - -
21/02:30pm 21.5 WNW 5 8 - - 0.0 - - - - - - -
21/02:00pm 21.4 W 3 6 - - 0.0 - - - - - - -
21/01:30pm 20.8 WSW 5 7 - - 0.0 - - - - - - -
21/01:00pm 20.6 WNW 3 5 - - 0.0 - - - - - - -
21/12:30pm 20.2 WNW 5 7 - - 0.0 - - - - - - -
21/12:00pm 19.5 W 6 8 - - 0.0 - - - - - - -
21/11:30am 19.5 W 6 9 - - 0.0 - - - - - - -
21/11:00am 19.0 WNW 4 6 - - 0.0 - - - - - - -
21/10:30am 18.8 WNW 5 7 - - 0.0 - - - - - - -
21/10:00am 19.2 NNE 3 7 - - 0.0 - - - - - - -
21/09:30am 18.4 NE 2 3 - - 0.0 - - - - - - -
21/09:00am 17.6 NE 2 3 - - 0.0 - - - - - - -
21/08:30am 17.3 NE 2 4 - - 0.0 - - - - - - -
21/08:00am 15.7 NE 3 5 - - 0.0 - - - - - - -
21/07:30am 14.2 ENE 1 2 - - 0.0 - - - - - - -
21/07:00am 12.4 ENE 3 5 - - 0.0 - - - - - - -
21/06:30am 11.1 ENE 4 7 - - 0.0 - - - - - - -
21/06:00am 11.0 NNE 2 4 - - 0.0 - - - - - - -
21/05:30am 11.5 N 4 5 - - 0.0 - - - - - - -
21/05:00am 12.6 ENE 5 11 - - 0.0 - - - - - - -
21/04:30am 13.0 ENE 9 14 - - 0.0 - - - - - - -
21/04:00am 13.1 ENE 10 14 - - 0.0 - - - - - - -
21/03:30am 13.2 ENE 11 16 - - 0.0 - - - - - - -
21/03:00am 13.1 ENE 10 14 - - 0.0 - - - - - - -
21/02:30am 13.5 E 13 20 - - 0.0 - - - - - - -
21/02:00am 13.3 E 13 19 - - 0.0 - - - - - - -
21/01:30am 13.4 E 13 19 - - 0.0 - - - - - - -
21/01:00am 13.4 E 13 26 - - 0.0 - - - - - - -
21/12:30am 13.4 E 12 18 - - 0.0 - - - - - - -
21/12:00am 13.6 E 14 22 - - 0.0 - - - - - - -
 
Date/Time
CST
Temp

°C
Wind Pressure Rain
since 9am
mm
Weather Cloud Vis
km
Sea
Height
m
Swell
Dir
 
Speed
knots
Gust
knots
hPa Trend Height
m
Period
s
Dir
20/11:30pm 13.7 E 12 24 - - 0.0 - - - - - - -
20/11:00pm 14.0 E 15 22 - - 0.0 - - - - - - -
20/10:30pm 14.0 E 14 21 - - 0.0 - - - - - - -
20/10:00pm 13.7 ESE 13 19 - - 0.0 - - - - - - -
20/09:30pm 14.1 E 14 24 - - 0.0 - - - - - - -
20/09:00pm 14.0 ESE 14 19 - - 0.0 - - - - - - -
20/08:30pm 14.3 ESE 14 20 - - 0.0 - - - - - - -
20/08:00pm 14.6 ESE 15 21 - - 0.0 - - - - - - -
20/07:30pm 15.3 ESE 15 23 - - 0.0 - - - - - - -
20/07:00pm 15.8 ESE 11 17 - - 0.0 - - - - - - -
20/06:30pm 16.9 ESE 10 15 - - 0.0 - - - - - - -
20/06:00pm 18.0 ESE 8 15 - - 0.0 - - - - - - -
20/05:30pm 19.2 ESE 11 15 - - 0.0 - - - - - - -
20/05:00pm 20.1 SE 10 14 - - 0.0 - - - - - - -
20/04:30pm 20.2 SW 6 8 - - 0.0 - - - - - - -
20/04:00pm 20.8 SW 5 6 - - 0.0 - - - - - - -
20/03:30pm 20.8 SW 6 9 - - 0.0 - - - - - - -
20/03:00pm 21.4 WSW 4 7 - - 0.0 - - - - - - -
20/02:30pm 21.1 W 5 8 - - 0.0 - - - - - - -
20/02:00pm 21.0 WSW 5 8 - - 0.0 - - - - - - -
20/01:30pm 20.6 W 6 10 - - 0.0 - - - - - - -
20/01:00pm 21.1 W 6 9 - - 0.0 - - - - - - -
20/12:30pm 20.1 WNW 7 9 - - 0.0 - - - - - - -
20/12:00pm 20.8 WNW 5 7 - - 0.0 - - - - - - -
20/11:30am 19.8 W 7 10 - - 0.0 - - - - - - -
20/11:00am 19.3 WNW 5 7 - - 0.0 - - - - - - -
20/10:30am 19.0 WNW 5 7 - - 0.0 - - - - - - -
20/10:00am 19.2 ESE 3 5 - - 0.0 - - - - - - -
20/09:30am 18.9 E 3 6 - - 0.0 - - - - - - -
20/09:00am 17.2 E 5 6 - - 0.2 - - - - - - -
20/08:30am 15.7 ENE 5 8 - - 0.2 - - - - - - -
20/08:00am 14.3 NE 4 8 - - 0.2 - - - - - - -
20/07:30am 12.5 ENE 8 12 - - 0.2 - - - - - - -
20/07:00am 11.5 ENE 9 13 - - 0.2 - - - - - - -
20/06:30am 10.9 ENE 11 16 - - 0.2 - - - - - - -
20/06:00am 10.8 E 11 16 - - 0.2 - - - - - - -
20/05:30am 11.0 ENE 11 19 - - 0.2 - - - - - - -
20/05:00am 11.1 E 12 17 - - 0.2 - - - - - - -
20/04:30am 11.3 E 11 17 - - 0.2 - - - - - - -
20/04:00am 11.3 E 11 17 - - 0.2 - - - - - - -
20/03:30am 11.4 E 12 18 - - 0.2 - - - - - - -
20/03:00am 11.4 E 12 18 - - 0.2 - - - - - - -
20/02:30am 11.6 E 14 20 - - 0.2 - - - - - - -
20/02:00am 11.3 E 13 19 - - 0.2 - - - - - - -
20/01:30am 11.4 E 13 20 - - 0.2 - - - - - - -
20/01:00am 11.5 E 13 22 - - 0.2 - - - - - - -
20/12:30am 11.6 E 13 19 - - 0.2 - - - - - - -
20/12:00am 11.6 E 14 20 - - 0.2 - - - - - - -
 
Date/Time
CST
Temp

°C
Wind Pressure Rain
since 9am
mm
Weather Cloud Vis
km
Sea
Height
m
Swell
Dir
 
Speed
knots
Gust
knots
hPa Trend Height
m
Period
s
Dir
19/11:30pm 11.8 E 15 21 - - 0.2 - - - - - - -
19/11:00pm 11.7 E 14 22 - - 0.2 - - - - - - -
19/10:30pm 11.9 E 15 20 - - 0.2 - - - - - - -
19/10:00pm 12.0 E 13 19 - - 0.2 - - - - - - -
19/09:30pm 12.0 E 13 19 - - 0.2 - - - - - - -
19/09:00pm 12.0 ESE 13 19 - - 0.2 - - - - - - -
19/08:30pm 11.9 ESE 12 16 - - 0.2 - - - - - - -
19/08:00pm 12.0 ESE 10 14 - - 0.2 - - - - - - -
19/07:30pm 12.4 ESE 11 17 - - 0.2 - - - - - - -
19/07:00pm 12.9 SE 11 17 - - 0.2 - - - - - - -
19/06:30pm 13.8 SE 10 14 - - 0.2 - - - - - - -
19/06:00pm 14.5 S 4 7 - - 0.2 - - - - - - -
19/05:30pm 15.7 SSW 4 8 - - 0.2 - - - - - - -
19/05:00pm 16.3 SW 5 8 - - 0.2 - - - - - - -
19/04:30pm 17.0 SW 6 9 - - 0.2 - - - - - - -
19/04:00pm 17.0 SSW 6 9 - - 0.2 - - - - - - -
19/03:30pm 16.9 SW 7 11 - - 0.2 - - - - - - -
19/03:00pm 17.3 WSW 6 9 - - 0.2 - - - - - - -
19/02:30pm 16.9 WSW 8 11 - - 0.2 - - - - - - -
19/02:00pm 17.1 WSW 7 11 - - 0.2 - - - - - - -
19/01:30pm 17.3 W 7 10 - - 0.0 - - - - - - -
19/01:00pm 16.5 W 6 10 - - 0.0 - - - - - - -
19/12:30pm 15.7 W 7 10 - - 0.0 - - - - - - -
19/12:00pm 15.5 W 5 9 - - 0.0 - - - - - - -
19/11:30am 16.1 WNW 3 6 - - 0.0 - - - - - - -
19/11:00am 13.8 WNW 4 6 - - 0.0 - - - - - - -
19/10:30am 16.0 ENE 4 7 - - 0.0 - - - - - - -
19/10:00am 15.7 E 7 10 - - 0.0 - - - - - - -
19/09:30am 14.7 E 10 13 - - 0.0 - - - - - - -
19/09:00am 13.9 E 8 15 - - 1.4 - - - - - - -
19/08:30am 12.8 E 9 15 - - 1.4 - - - - - - -
19/08:00am 11.6 E 10 14 - - 1.4 - - - - - - -
19/07:30am 10.6 E 9 16 - - 1.4 - - - - - - -
19/07:00am 9.7 E 8 14 - - 1.4 - - - - - - -
19/06:30am 8.6 ENE 6 10 - - 1.4 - - - - - - -
19/06:00am 8.3 E 5 9 - - 1.4 - - - - - - -
19/05:30am 8.6 ENE 6 9 - - 1.4 - - - - - - -
19/05:00am 8.5 E 8 14 - - 1.4 - - - - - - -
19/04:30am 8.8 E 9 14 - - 1.4 - - - - - - -
19/04:00am 8.7 E 11 16 - - 1.4 - - - - - - -
19/03:30am 8.5 ESE 11 16 - - 1.4 - - - - - - -
19/03:00am 8.6 ESE 11 16 - - 1.4 - - - - - - -
19/02:30am 8.5 E 10 14 - - 1.4 - - - - - - -
19/02:00am 8.5 E 10 14 - - 1.4 - - - - - - -
19/01:30am 8.6 ESE 10 14 - - 1.4 - - - - - - -
19/01:00am 8.4 ESE 8 11 - - 1.4 - - - - - - -
19/12:30am 8.8 ESE 8 12 - - 1.4 - - - - - - -
19/12:00am 9.0 ESE 8 11 - - 1.4 - - - - - - -
 
Date/Time
CST
Temp

°C
Wind Pressure Rain
since 9am
mm
Weather Cloud Vis
km
Sea
Height
m
Swell
Dir
 
Speed
knots
Gust
knots
hPa Trend Height
m
Period
s
Dir
18/11:30pm 8.7 ESE 8 12 - - 1.4 - - - - - - -
18/11:00pm 8.9 ESE 7 10 - - 1.4 - - - - - - -
18/10:30pm 8.5 ESE 7 8 - - 1.4 - - - - - - -
18/10:00pm 8.7 ESE 7 11 - - 1.4 - - - - - - -
18/09:30pm 8.7 E 6 8 - - 1.4 - - - - - - -
18/09:00pm 9.1 E 6 8 - - 1.4 - - - - - - -
18/08:30pm 9.3 ESE 4 7 - - 1.4 - - - - - - -
18/08:00pm 9.6 ESE 6 7 - - 1.4 - - - - - - -

Other Formats:

Comma delimited format used in spreadsheet applications
http://www.bom.gov.au/fwo/IDS60701/IDS60701.94808.axf

JavaScript Object Notation format (JSON) in row-major order
http://www.bom.gov.au/fwo/IDS60701/IDS60701.94808.json